sensor_id;sensor_type;location;lat;lon;timestamp;P1;durP1;ratioP1;P2;durP2;ratioP2
24799;SDS011;12897;50.812;4.430;2022-12-24T00:01:03;57.88;;;7.45;;
24799;SDS011;12897;50.812;4.430;2022-12-24T00:03:32;67.10;;;7.75;;
24799;SDS011;12897;50.812;4.430;2022-12-24T00:06:06;56.08;;;6.90;;
24799;SDS011;12897;50.812;4.430;2022-12-24T00:08:33;44.88;;;6.03;;
24799;SDS011;12897;50.812;4.430;2022-12-24T00:11:02;45.80;;;7.28;;
24799;SDS011;12897;50.812;4.430;2022-12-24T00:13:30;43.33;;;6.62;;
24799;SDS011;12897;50.812;4.430;2022-12-24T00:15:58;44.25;;;6.05;;
24799;SDS011;12897;50.812;4.430;2022-12-24T00:18:27;48.50;;;6.58;;
24799;SDS011;12897;50.812;4.430;2022-12-24T00:20:55;44.23;;;6.62;;
24799;SDS011;12897;50.812;4.430;2022-12-24T00:23:22;53.40;;;6.95;;
24799;SDS011;12897;50.812;4.430;2022-12-24T00:25:50;47.67;;;6.72;;
24799;SDS011;12897;50.812;4.430;2022-12-24T00:28:26;45.20;;;6.87;;
24799;SDS011;12897;50.812;4.430;2022-12-24T00:30:53;47.08;;;6.53;;
24799;SDS011;12897;50.812;4.430;2022-12-24T00:33:21;49.58;;;6.35;;
24799;SDS011;12897;50.812;4.430;2022-12-24T00:35:49;42.78;;;5.97;;
24799;SDS011;12897;50.812;4.430;2022-12-24T00:38:18;51.23;;;6.93;;
24799;SDS011;12897;50.812;4.430;2022-12-24T00:40:47;63.00;;;7.45;;
24799;SDS011;12897;50.812;4.430;2022-12-24T00:43:15;53.55;;;7.80;;
24799;SDS011;12897;50.812;4.430;2022-12-24T00:45:42;52.95;;;6.55;;
24799;SDS011;12897;50.812;4.430;2022-12-24T00:48:10;61.85;;;7.37;;
24799;SDS011;12897;50.812;4.430;2022-12-24T00:50:38;50.52;;;6.60;;
24799;SDS011;12897;50.812;4.430;2022-12-24T00:53:05;43.98;;;6.17;;
24799;SDS011;12897;50.812;4.430;2022-12-24T00:55:39;63.87;;;7.72;;
24799;SDS011;12897;50.812;4.430;2022-12-24T00:58:07;54.88;;;7.95;;
24799;SDS011;12897;50.812;4.430;2022-12-24T01:00:34;44.25;;;7.33;;
24799;SDS011;12897;50.812;4.430;2022-12-24T01:03:02;55.20;;;7.28;;
24799;SDS011;12897;50.812;4.430;2022-12-24T01:05:33;53.70;;;6.60;;
24799;SDS011;12897;50.812;4.430;2022-12-24T01:08:01;53.40;;;7.00;;
24799;SDS011;12897;50.812;4.430;2022-12-24T01:10:30;61.98;;;7.60;;
24799;SDS011;12897;50.812;4.430;2022-12-24T01:13:03;49.53;;;7.05;;
24799;SDS011;12897;50.812;4.430;2022-12-24T01:15:28;42.78;;;5.72;;
24799;SDS011;12897;50.812;4.430;2022-12-24T01:17:56;56.60;;;6.97;;
24799;SDS011;12897;50.812;4.430;2022-12-24T01:20:24;38.13;;;4.97;;
24799;SDS011;12897;50.812;4.430;2022-12-24T01:22:56;43.63;;;6.00;;
24799;SDS011;12897;50.812;4.430;2022-12-24T01:25:25;31.37;;;5.15;;
24799;SDS011;12897;50.812;4.430;2022-12-24T01:27:52;31.93;;;4.55;;
24799;SDS011;12897;50.812;4.430;2022-12-24T01:30:20;23.30;;;3.98;;
24799;SDS011;12897;50.812;4.430;2022-12-24T01:32:48;30.75;;;4.30;;
24799;SDS011;12897;50.812;4.430;2022-12-24T01:35:19;27.25;;;4.47;;
24799;SDS011;12897;50.812;4.430;2022-12-24T01:37:44;21.48;;;4.00;;
24799;SDS011;12897;50.812;4.430;2022-12-24T01:40:15;40.30;;;5.53;;
24799;SDS011;12897;50.812;4.430;2022-12-24T01:43:01;37.15;;;5.78;;
24799;SDS011;12897;50.812;4.430;2022-12-24T01:45:50;57.80;;;7.53;;
24799;SDS011;12897;50.812;4.430;2022-12-24T01:48:25;47.95;;;6.15;;
24799;SDS011;12897;50.812;4.430;2022-12-24T01:51:00;63.73;;;7.33;;
24799;SDS011;12897;50.812;4.430;2022-12-24T01:53:31;63.40;;;6.60;;
24799;SDS011;12897;50.812;4.430;2022-12-24T01:56:02;53.05;;;6.67;;
24799;SDS011;12897;50.812;4.430;2022-12-24T01:58:33;49.67;;;6.22;;
24799;SDS011;12897;50.812;4.430;2022-12-24T02:01:04;47.15;;;6.62;;
24799;SDS011;12897;50.812;4.430;2022-12-24T02:03:32;46.65;;;6.40;;
24799;SDS011;12897;50.812;4.430;2022-12-24T02:06:00;37.67;;;6.40;;
24799;SDS011;12897;50.812;4.430;2022-12-24T02:08:37;50.45;;;7.03;;
24799;SDS011;12897;50.812;4.430;2022-12-24T02:11:14;64.40;;;7.35;;
24799;SDS011;12897;50.812;4.430;2022-12-24T02:13:44;57.03;;;7.42;;
24799;SDS011;12897;50.812;4.430;2022-12-24T02:21:49;37.55;;;6.33;;
24799;SDS011;12897;50.812;4.430;2022-12-24T02:32:48;54.15;;;6.53;;
24799;SDS011;12897;50.812;4.430;2022-12-24T02:38:21;43.60;;;5.83;;
24799;SDS011;12897;50.812;4.430;2022-12-24T02:41:03;49.58;;;6.22;;
24799;SDS011;12897;50.812;4.430;2022-12-24T02:43:35;38.83;;;5.80;;
24799;SDS011;12897;50.812;4.430;2022-12-24T02:46:06;43.23;;;5.65;;
24799;SDS011;12897;50.812;4.430;2022-12-24T02:48:39;38.63;;;5.67;;
24799;SDS011;12897;50.812;4.430;2022-12-24T02:51:09;32.75;;;6.50;;
24799;SDS011;12897;50.812;4.430;2022-12-24T02:53:37;41.42;;;5.33;;
24799;SDS011;12897;50.812;4.430;2022-12-24T02:58:47;25.35;;;5.28;;
24799;SDS011;12897;50.812;4.430;2022-12-24T03:03:48;38.83;;;5.90;;
24799;SDS011;12897;50.812;4.430;2022-12-24T03:09:13;45.38;;;5.70;;
24799;SDS011;12897;50.812;4.430;2022-12-24T03:11:52;48.95;;;6.35;;
24799;SDS011;12897;50.812;4.430;2022-12-24T03:14:16;43.65;;;7.35;;
24799;SDS011;12897;50.812;4.430;2022-12-24T03:16:50;57.00;;;6.28;;
24799;SDS011;12897;50.812;4.430;2022-12-24T03:19:18;60.65;;;7.03;;
24799;SDS011;12897;50.812;4.430;2022-12-24T03:21:47;49.35;;;7.12;;
24799;SDS011;12897;50.812;4.430;2022-12-24T03:24:16;50.13;;;8.17;;
24799;SDS011;12897;50.812;4.430;2022-12-24T03:26:45;49.40;;;6.22;;
24799;SDS011;12897;50.812;4.430;2022-12-24T03:29:18;43.45;;;6.30;;
24799;SDS011;12897;50.812;4.430;2022-12-24T03:31:43;48.13;;;7.15;;
24799;SDS011;12897;50.812;4.430;2022-12-24T03:34:13;48.48;;;6.45;;
24799;SDS011;12897;50.812;4.430;2022-12-24T03:36:41;47.55;;;6.97;;
24799;SDS011;12897;50.812;4.430;2022-12-24T03:39:10;51.30;;;7.20;;
24799;SDS011;12897;50.812;4.430;2022-12-24T03:41:39;54.77;;;7.03;;
24799;SDS011;12897;50.812;4.430;2022-12-24T03:44:07;57.27;;;7.17;;
24799;SDS011;12897;50.812;4.430;2022-12-24T03:46:35;55.00;;;7.58;;
24799;SDS011;12897;50.812;4.430;2022-12-24T03:49:02;42.35;;;6.00;;
24799;SDS011;12897;50.812;4.430;2022-12-24T03:51:30;40.63;;;5.85;;
24799;SDS011;12897;50.812;4.430;2022-12-24T03:53:58;53.92;;;7.90;;
24799;SDS011;12897;50.812;4.430;2022-12-24T03:56:26;55.88;;;6.87;;
24799;SDS011;12897;50.812;4.430;2022-12-24T03:58:53;66.33;;;7.60;;
24799;SDS011;12897;50.812;4.430;2022-12-24T04:01:28;45.88;;;6.50;;
24799;SDS011;12897;50.812;4.430;2022-12-24T04:03:57;50.75;;;6.55;;
24799;SDS011;12897;50.812;4.430;2022-12-24T04:06:24;65.50;;;7.37;;
24799;SDS011;12897;50.812;4.430;2022-12-24T04:08:52;38.88;;;6.20;;
24799;SDS011;12897;50.812;4.430;2022-12-24T04:11:20;49.27;;;7.53;;
24799;SDS011;12897;50.812;4.430;2022-12-24T04:13:47;44.85;;;6.85;;
24799;SDS011;12897;50.812;4.430;2022-12-24T04:16:15;58.92;;;6.53;;
24799;SDS011;12897;50.812;4.430;2022-12-24T04:18:43;51.70;;;6.25;;
24799;SDS011;12897;50.812;4.430;2022-12-24T04:21:10;58.05;;;7.00;;
24799;SDS011;12897;50.812;4.430;2022-12-24T04:23:38;46.98;;;6.37;;
24799;SDS011;12897;50.812;4.430;2022-12-24T04:26:08;59.40;;;8.08;;
24799;SDS011;12897;50.812;4.430;2022-12-24T04:28:37;50.08;;;6.78;;
24799;SDS011;12897;50.812;4.430;2022-12-24T04:31:06;55.95;;;6.83;;
24799;SDS011;12897;50.812;4.430;2022-12-24T04:33:36;47.45;;;7.15;;
24799;SDS011;12897;50.812;4.430;2022-12-24T04:36:05;47.62;;;6.58;;
24799;SDS011;12897;50.812;4.430;2022-12-24T04:38:34;51.67;;;7.20;;
24799;SDS011;12897;50.812;4.430;2022-12-24T04:41:09;57.85;;;6.95;;
24799;SDS011;12897;50.812;4.430;2022-12-24T04:43:42;48.68;;;6.72;;
24799;SDS011;12897;50.812;4.430;2022-12-24T04:46:15;50.48;;;7.72;;
24799;SDS011;12897;50.812;4.430;2022-12-24T04:48:49;52.20;;;6.22;;
24799;SDS011;12897;50.812;4.430;2022-12-24T04:51:25;67.92;;;7.95;;
24799;SDS011;12897;50.812;4.430;2022-12-24T04:56:36;47.17;;;6.40;;
24799;SDS011;12897;50.812;4.430;2022-12-24T04:59:14;55.50;;;7.08;;
24799;SDS011;12897;50.812;4.430;2022-12-24T05:01:50;54.55;;;7.40;;
24799;SDS011;12897;50.812;4.430;2022-12-24T05:04:18;61.75;;;7.45;;
24799;SDS011;12897;50.812;4.430;2022-12-24T05:06:46;61.83;;;7.72;;
24799;SDS011;12897;50.812;4.430;2022-12-24T05:09:13;47.27;;;7.20;;
24799;SDS011;12897;50.812;4.430;2022-12-24T05:11:41;59.65;;;8.48;;
24799;SDS011;12897;50.812;4.430;2022-12-24T05:14:09;53.75;;;8.03;;
24799;SDS011;12897;50.812;4.430;2022-12-24T05:19:06;56.73;;;6.95;;
24799;SDS011;12897;50.812;4.430;2022-12-24T05:21:33;51.95;;;6.30;;
24799;SDS011;12897;50.812;4.430;2022-12-24T05:24:01;48.05;;;6.45;;
24799;SDS011;12897;50.812;4.430;2022-12-24T05:26:48;52.35;;;7.22;;
24799;SDS011;12897;50.812;4.430;2022-12-24T05:29:19;45.80;;;7.55;;
24799;SDS011;12897;50.812;4.430;2022-12-24T05:31:47;52.40;;;6.75;;
24799;SDS011;12897;50.812;4.430;2022-12-24T05:34:15;56.48;;;6.00;;
24799;SDS011;12897;50.812;4.430;2022-12-24T05:36:43;55.30;;;7.42;;
24799;SDS011;12897;50.812;4.430;2022-12-24T05:39:14;53.80;;;6.30;;
24799;SDS011;12897;50.812;4.430;2022-12-24T05:41:43;60.90;;;7.58;;
24799;SDS011;12897;50.812;4.430;2022-12-24T05:44:12;48.52;;;5.92;;
24799;SDS011;12897;50.812;4.430;2022-12-24T05:46:41;48.28;;;6.97;;
24799;SDS011;12897;50.812;4.430;2022-12-24T05:49:09;62.05;;;6.95;;
24799;SDS011;12897;50.812;4.430;2022-12-24T05:51:45;45.28;;;6.87;;
24799;SDS011;12897;50.812;4.430;2022-12-24T05:54:13;50.65;;;6.25;;
24799;SDS011;12897;50.812;4.430;2022-12-24T05:56:40;60.23;;;7.78;;
24799;SDS011;12897;50.812;4.430;2022-12-24T05:59:08;51.58;;;7.58;;
24799;SDS011;12897;50.812;4.430;2022-12-24T06:01:36;51.88;;;6.58;;
24799;SDS011;12897;50.812;4.430;2022-12-24T06:04:03;52.83;;;6.75;;
24799;SDS011;12897;50.812;4.430;2022-12-24T06:06:31;45.23;;;5.92;;
24799;SDS011;12897;50.812;4.430;2022-12-24T06:08:59;56.18;;;6.87;;
24799;SDS011;12897;50.812;4.430;2022-12-24T06:11:26;45.95;;;7.50;;
24799;SDS011;12897;50.812;4.430;2022-12-24T06:13:55;59.90;;;7.42;;
24799;SDS011;12897;50.812;4.430;2022-12-24T06:16:23;47.03;;;7.03;;
24799;SDS011;12897;50.812;4.430;2022-12-24T06:18:52;55.45;;;7.12;;
24799;SDS011;12897;50.812;4.430;2022-12-24T06:21:20;53.10;;;7.43;;
24799;SDS011;12897;50.812;4.430;2022-12-24T06:23:48;53.25;;;7.00;;
24799;SDS011;12897;50.812;4.430;2022-12-24T06:26:17;53.75;;;7.15;;
24799;SDS011;12897;50.812;4.430;2022-12-24T06:28:48;59.67;;;7.37;;
24799;SDS011;12897;50.812;4.430;2022-12-24T06:31:17;45.85;;;6.58;;
24799;SDS011;12897;50.812;4.430;2022-12-24T06:33:46;63.05;;;7.47;;
24799;SDS011;12897;50.812;4.430;2022-12-24T06:36:15;64.60;;;6.90;;
24799;SDS011;12897;50.812;4.430;2022-12-24T06:38:45;51.75;;;6.60;;
24799;SDS011;12897;50.812;4.430;2022-12-24T06:41:14;51.70;;;7.10;;
24799;SDS011;12897;50.812;4.430;2022-12-24T06:43:43;56.33;;;7.80;;
24799;SDS011;12897;50.812;4.430;2022-12-24T06:46:12;66.70;;;7.87;;
24799;SDS011;12897;50.812;4.430;2022-12-24T06:48:39;63.35;;;7.12;;
24799;SDS011;12897;50.812;4.430;2022-12-24T06:51:08;51.42;;;6.78;;
24799;SDS011;12897;50.812;4.430;2022-12-24T06:53:41;53.48;;;7.45;;
24799;SDS011;12897;50.812;4.430;2022-12-24T06:56:11;52.00;;;6.87;;
24799;SDS011;12897;50.812;4.430;2022-12-24T06:58:40;55.52;;;7.08;;
24799;SDS011;12897;50.812;4.430;2022-12-24T07:01:09;57.25;;;7.30;;
24799;SDS011;12897;50.812;4.430;2022-12-24T07:03:39;53.38;;;7.10;;
24799;SDS011;12897;50.812;4.430;2022-12-24T07:06:10;59.67;;;7.92;;
24799;SDS011;12897;50.812;4.430;2022-12-24T07:08:37;48.70;;;7.12;;
24799;SDS011;12897;50.812;4.430;2022-12-24T07:11:06;60.17;;;7.53;;
24799;SDS011;12897;50.812;4.430;2022-12-24T07:13:33;55.10;;;6.87;;
24799;SDS011;12897;50.812;4.430;2022-12-24T07:16:01;56.85;;;6.97;;
24799;SDS011;12897;50.812;4.430;2022-12-24T07:18:30;52.05;;;7.75;;
24799;SDS011;12897;50.812;4.430;2022-12-24T07:20:57;57.50;;;6.90;;
24799;SDS011;12897;50.812;4.430;2022-12-24T07:23:25;46.42;;;6.17;;
24799;SDS011;12897;50.812;4.430;2022-12-24T07:25:53;48.55;;;6.95;;
24799;SDS011;12897;50.812;4.430;2022-12-24T07:28:21;60.63;;;7.40;;
24799;SDS011;12897;50.812;4.430;2022-12-24T07:30:49;54.63;;;7.53;;
24799;SDS011;12897;50.812;4.430;2022-12-24T07:33:16;56.13;;;7.90;;
24799;SDS011;12897;50.812;4.430;2022-12-24T07:35:47;57.90;;;7.28;;
24799;SDS011;12897;50.812;4.430;2022-12-24T07:38:16;55.30;;;7.75;;
24799;SDS011;12897;50.812;4.430;2022-12-24T07:40:43;54.20;;;7.78;;
24799;SDS011;12897;50.812;4.430;2022-12-24T07:43:14;66.77;;;7.95;;
24799;SDS011;12897;50.812;4.430;2022-12-24T07:45:44;60.20;;;7.37;;
24799;SDS011;12897;50.812;4.430;2022-12-24T07:48:17;66.33;;;7.78;;
24799;SDS011;12897;50.812;4.430;2022-12-24T07:50:47;61.58;;;7.03;;
24799;SDS011;12897;50.812;4.430;2022-12-24T07:53:17;44.10;;;6.40;;
24799;SDS011;12897;50.812;4.430;2022-12-24T07:55:48;54.77;;;7.15;;
24799;SDS011;12897;50.812;4.430;2022-12-24T07:58:16;48.38;;;6.58;;
24799;SDS011;12897;50.812;4.430;2022-12-24T08:00:43;57.67;;;7.30;;
24799;SDS011;12897;50.812;4.430;2022-12-24T08:03:18;55.28;;;7.92;;
24799;SDS011;12897;50.812;4.430;2022-12-24T08:05:46;53.08;;;7.83;;
24799;SDS011;12897;50.812;4.430;2022-12-24T08:08:18;54.50;;;6.80;;
24799;SDS011;12897;50.812;4.430;2022-12-24T08:10:51;66.00;;;6.87;;
24799;SDS011;12897;50.812;4.430;2022-12-24T08:13:18;56.80;;;6.85;;
24799;SDS011;12897;50.812;4.430;2022-12-24T08:15:46;60.52;;;7.58;;
24799;SDS011;12897;50.812;4.430;2022-12-24T08:18:16;62.93;;;6.43;;
24799;SDS011;12897;50.812;4.430;2022-12-24T08:20:45;55.28;;;7.45;;
24799;SDS011;12897;50.812;4.430;2022-12-24T08:23:14;50.55;;;7.55;;
24799;SDS011;12897;50.812;4.430;2022-12-24T08:25:43;52.62;;;7.40;;
24799;SDS011;12897;50.812;4.430;2022-12-24T08:28:14;61.58;;;8.13;;
24799;SDS011;12897;50.812;4.430;2022-12-24T08:30:46;56.37;;;7.30;;
24799;SDS011;12897;50.812;4.430;2022-12-24T08:33:15;45.83;;;6.97;;
24799;SDS011;12897;50.812;4.430;2022-12-24T08:35:47;60.65;;;7.12;;
24799;SDS011;12897;50.812;4.430;2022-12-24T08:38:15;63.68;;;8.43;;
24799;SDS011;12897;50.812;4.430;2022-12-24T08:40:45;49.20;;;7.17;;
24799;SDS011;12897;50.812;4.430;2022-12-24T08:43:16;57.67;;;6.90;;
24799;SDS011;12897;50.812;4.430;2022-12-24T08:45:52;50.38;;;7.50;;
24799;SDS011;12897;50.812;4.430;2022-12-24T08:48:17;54.08;;;6.97;;
24799;SDS011;12897;50.812;4.430;2022-12-24T08:50:45;53.15;;;7.17;;
24799;SDS011;12897;50.812;4.430;2022-12-24T08:53:15;48.40;;;7.30;;
24799;SDS011;12897;50.812;4.430;2022-12-24T08:55:47;56.33;;;8.18;;
24799;SDS011;12897;50.812;4.430;2022-12-24T08:58:16;51.35;;;7.20;;
24799;SDS011;12897;50.812;4.430;2022-12-24T09:00:43;60.58;;;8.03;;
24799;SDS011;12897;50.812;4.430;2022-12-24T09:03:12;53.85;;;9.08;;
24799;SDS011;12897;50.812;4.430;2022-12-24T09:05:41;50.30;;;8.08;;
24799;SDS011;12897;50.812;4.430;2022-12-24T09:08:08;49.50;;;7.15;;
24799;SDS011;12897;50.812;4.430;2022-12-24T09:10:36;52.15;;;7.65;;
24799;SDS011;12897;50.812;4.430;2022-12-24T09:13:03;48.95;;;7.40;;
24799;SDS011;12897;50.812;4.430;2022-12-24T09:15:31;47.30;;;6.80;;
24799;SDS011;12897;50.812;4.430;2022-12-24T09:17:59;54.90;;;7.72;;
24799;SDS011;12897;50.812;4.430;2022-12-24T09:20:27;51.77;;;7.92;;
24799;SDS011;12897;50.812;4.430;2022-12-24T09:22:55;49.95;;;7.10;;
24799;SDS011;12897;50.812;4.430;2022-12-24T09:25:22;59.45;;;7.53;;
24799;SDS011;12897;50.812;4.430;2022-12-24T09:27:50;53.52;;;7.65;;
24799;SDS011;12897;50.812;4.430;2022-12-24T09:30:17;62.08;;;8.45;;
24799;SDS011;12897;50.812;4.430;2022-12-24T09:32:45;45.48;;;7.12;;
24799;SDS011;12897;50.812;4.430;2022-12-24T09:35:13;50.17;;;7.72;;
24799;SDS011;12897;50.812;4.430;2022-12-24T09:37:40;56.23;;;7.95;;
24799;SDS011;12897;50.812;4.430;2022-12-24T09:40:11;59.93;;;6.87;;
24799;SDS011;12897;50.812;4.430;2022-12-24T09:42:45;46.18;;;8.00;;
24799;SDS011;12897;50.812;4.430;2022-12-24T09:47:54;47.05;;;7.33;;
24799;SDS011;12897;50.812;4.430;2022-12-24T09:50:28;56.00;;;8.08;;
24799;SDS011;12897;50.812;4.430;2022-12-24T09:56:06;61.90;;;7.50;;
24799;SDS011;12897;50.812;4.430;2022-12-24T09:58:43;55.38;;;8.48;;
24799;SDS011;12897;50.812;4.430;2022-12-24T10:01:11;57.67;;;8.98;;
24799;SDS011;12897;50.812;4.430;2022-12-24T10:03:41;70.57;;;10.43;;
24799;SDS011;12897;50.812;4.430;2022-12-24T10:06:28;58.02;;;8.40;;
24799;SDS011;12897;50.812;4.430;2022-12-24T10:08:58;54.10;;;8.55;;
24799;SDS011;12897;50.812;4.430;2022-12-24T10:22:24;55.40;;;7.92;;
24799;SDS011;12897;50.812;4.430;2022-12-24T10:27:29;52.45;;;7.95;;
24799;SDS011;12897;50.812;4.430;2022-12-24T10:30:03;52.98;;;7.40;;
24799;SDS011;12897;50.812;4.430;2022-12-24T10:32:32;52.48;;;8.15;;
24799;SDS011;12897;50.812;4.430;2022-12-24T10:35:10;56.95;;;7.80;;
24799;SDS011;12897;50.812;4.430;2022-12-24T10:37:44;51.23;;;7.47;;
24799;SDS011;12897;50.812;4.430;2022-12-24T10:40:15;53.28;;;7.90;;
24799;SDS011;12897;50.812;4.430;2022-12-24T10:42:43;56.08;;;8.30;;
24799;SDS011;12897;50.812;4.430;2022-12-24T10:45:15;56.15;;;8.30;;
24799;SDS011;12897;50.812;4.430;2022-12-24T10:47:47;51.88;;;7.87;;
24799;SDS011;12897;50.812;4.430;2022-12-24T10:53:47;51.60;;;7.42;;
24799;SDS011;12897;50.812;4.430;2022-12-24T10:55:39;57.62;;;7.83;;
24799;SDS011;12897;50.812;4.430;2022-12-24T10:58:12;53.40;;;8.43;;
24799;SDS011;12897;50.812;4.430;2022-12-24T11:00:38;56.45;;;8.10;;
24799;SDS011;12897;50.812;4.430;2022-12-24T11:03:28;66.53;;;8.23;;
24799;SDS011;12897;50.812;4.430;2022-12-24T11:06:06;48.23;;;7.95;;
24799;SDS011;12897;50.812;4.430;2022-12-24T11:08:39;57.58;;;8.55;;
24799;SDS011;12897;50.812;4.430;2022-12-24T11:13:43;45.78;;;7.40;;
24799;SDS011;12897;50.812;4.430;2022-12-24T11:16:33;47.08;;;7.60;;
24799;SDS011;12897;50.812;4.430;2022-12-24T11:19:03;53.85;;;7.62;;
24799;SDS011;12897;50.812;4.430;2022-12-24T11:21:37;51.37;;;8.13;;
24799;SDS011;12897;50.812;4.430;2022-12-24T11:26:48;55.20;;;8.68;;
24799;SDS011;12897;50.812;4.430;2022-12-24T11:29:23;60.45;;;8.50;;
24799;SDS011;12897;50.812;4.430;2022-12-24T11:31:52;53.90;;;8.85;;
24799;SDS011;12897;50.812;4.430;2022-12-24T11:34:38;56.98;;;8.00;;
24799;SDS011;12897;50.812;4.430;2022-12-24T11:37:30;45.60;;;7.67;;
24799;SDS011;12897;50.812;4.430;2022-12-24T11:39:57;52.60;;;7.12;;
24799;SDS011;12897;50.812;4.430;2022-12-24T11:42:30;54.40;;;8.48;;
24799;SDS011;12897;50.812;4.430;2022-12-24T11:45:00;51.02;;;7.92;;
24799;SDS011;12897;50.812;4.430;2022-12-24T11:47:38;52.10;;;7.92;;
24799;SDS011;12897;50.812;4.430;2022-12-24T11:50:27;37.70;;;6.92;;
24799;SDS011;12897;50.812;4.430;2022-12-24T11:53:03;43.95;;;6.75;;
24799;SDS011;12897;50.812;4.430;2022-12-24T11:55:49;42.55;;;7.60;;
24799;SDS011;12897;50.812;4.430;2022-12-24T11:58:22;52.35;;;6.70;;
24799;SDS011;12897;50.812;4.430;2022-12-24T12:01:09;49.73;;;7.30;;
24799;SDS011;12897;50.812;4.430;2022-12-24T12:03:42;48.95;;;7.17;;
24799;SDS011;12897;50.812;4.430;2022-12-24T12:08:57;45.80;;;7.13;;
24799;SDS011;12897;50.812;4.430;2022-12-24T12:11:27;57.15;;;8.38;;
24799;SDS011;12897;50.812;4.430;2022-12-24T12:16:27;42.53;;;6.85;;
24799;SDS011;12897;50.812;4.430;2022-12-24T12:19:01;43.87;;;6.70;;
24799;SDS011;12897;50.812;4.430;2022-12-24T12:21:34;52.95;;;8.18;;
24799;SDS011;12897;50.812;4.430;2022-12-24T12:24:05;54.77;;;7.83;;
24799;SDS011;12897;50.812;4.430;2022-12-24T12:26:35;53.10;;;7.08;;
24799;SDS011;12897;50.812;4.430;2022-12-24T12:29:26;43.60;;;6.60;;
24799;SDS011;12897;50.812;4.430;2022-12-24T12:31:47;50.35;;;7.12;;
24799;SDS011;12897;50.812;4.430;2022-12-24T12:34:19;42.93;;;7.40;;
24799;SDS011;12897;50.812;4.430;2022-12-24T12:36:48;44.67;;;7.50;;
24799;SDS011;12897;50.812;4.430;2022-12-24T12:39:18;46.63;;;7.25;;
24799;SDS011;12897;50.812;4.430;2022-12-24T12:42:06;50.88;;;7.80;;
24799;SDS011;12897;50.812;4.430;2022-12-24T12:44:41;51.95;;;7.28;;
24799;SDS011;12897;50.812;4.430;2022-12-24T12:47:26;44.53;;;6.80;;
24799;SDS011;12897;50.812;4.430;2022-12-24T12:57:45;41.10;;;6.58;;
24799;SDS011;12897;50.812;4.430;2022-12-24T13:00:16;41.18;;;7.70;;
24799;SDS011;12897;50.812;4.430;2022-12-24T13:03:07;44.85;;;7.62;;
24799;SDS011;12897;50.812;4.430;2022-12-24T13:21:46;38.48;;;7.42;;
24799;SDS011;12897;50.812;4.430;2022-12-24T13:24:26;41.65;;;7.33;;
24799;SDS011;12897;50.812;4.430;2022-12-24T13:32:48;53.90;;;6.70;;
24799;SDS011;12897;50.812;4.430;2022-12-24T13:37:50;45.52;;;7.20;;
24799;SDS011;12897;50.812;4.430;2022-12-24T13:40:24;36.28;;;7.45;;
24799;SDS011;12897;50.812;4.430;2022-12-24T13:50:37;39.33;;;6.50;;
24799;SDS011;12897;50.812;4.430;2022-12-24T13:54:00;37.23;;;6.03;;
24799;SDS011;12897;50.812;4.430;2022-12-24T13:56:18;45.95;;;7.65;;
24799;SDS011;12897;50.812;4.430;2022-12-24T13:58:36;50.52;;;6.30;;
24799;SDS011;12897;50.812;4.430;2022-12-24T14:01:10;44.60;;;7.10;;
24799;SDS011;12897;50.812;4.430;2022-12-24T14:03:44;45.12;;;7.22;;
24799;SDS011;12897;50.812;4.430;2022-12-24T14:06:21;41.90;;;6.37;;
24799;SDS011;12897;50.812;4.430;2022-12-24T14:08:51;47.33;;;6.12;;
24799;SDS011;12897;50.812;4.430;2022-12-24T14:11:21;52.27;;;7.55;;
24799;SDS011;12897;50.812;4.430;2022-12-24T14:14:10;53.48;;;7.85;;
24799;SDS011;12897;50.812;4.430;2022-12-24T14:16:40;38.73;;;7.17;;
24799;SDS011;12897;50.812;4.430;2022-12-24T14:19:15;56.53;;;8.40;;
24799;SDS011;12897;50.812;4.430;2022-12-24T14:24:32;46.58;;;8.90;;
24799;SDS011;12897;50.812;4.430;2022-12-24T14:28:03;46.40;;;7.95;;
24799;SDS011;12897;50.812;4.430;2022-12-24T14:29:55;47.98;;;8.03;;
24799;SDS011;12897;50.812;4.430;2022-12-24T14:32:19;47.43;;;7.62;;
24799;SDS011;12897;50.812;4.430;2022-12-24T14:35:03;46.35;;;7.20;;
24799;SDS011;12897;50.812;4.430;2022-12-24T14:37:33;40.25;;;6.95;;
24799;SDS011;12897;50.812;4.430;2022-12-24T14:40:01;46.98;;;7.10;;
24799;SDS011;12897;50.812;4.430;2022-12-24T14:51:40;49.30;;;7.05;;
24799;SDS011;12897;50.812;4.430;2022-12-24T14:56:16;41.23;;;7.40;;
24799;SDS011;12897;50.812;4.430;2022-12-24T15:01:27;48.17;;;7.47;;
24799;SDS011;12897;50.812;4.430;2022-12-24T15:04:03;42.00;;;7.08;;
24799;SDS011;12897;50.812;4.430;2022-12-24T15:06:40;48.80;;;7.33;;
24799;SDS011;12897;50.812;4.430;2022-12-24T15:11:57;50.85;;;7.70;;
24799;SDS011;12897;50.812;4.430;2022-12-24T15:14:23;48.08;;;7.72;;
24799;SDS011;12897;50.812;4.430;2022-12-24T15:16:57;59.60;;;8.30;;
24799;SDS011;12897;50.812;4.430;2022-12-24T15:19:27;56.65;;;7.80;;
24799;SDS011;12897;50.812;4.430;2022-12-24T15:22:39;51.23;;;8.03;;
24799;SDS011;12897;50.812;4.430;2022-12-24T15:24:54;53.42;;;9.20;;
24799;SDS011;12897;50.812;4.430;2022-12-24T15:27:23;42.30;;;7.97;;
24799;SDS011;12897;50.812;4.430;2022-12-24T15:32:20;52.50;;;8.75;;
24799;SDS011;12897;50.812;4.430;2022-12-24T15:34:50;50.95;;;7.85;;
24799;SDS011;12897;50.812;4.430;2022-12-24T15:37:20;47.45;;;8.25;;
24799;SDS011;12897;50.812;4.430;2022-12-24T15:39:53;52.98;;;7.92;;
24799;SDS011;12897;50.812;4.430;2022-12-24T15:42:23;50.80;;;7.72;;
24799;SDS011;12897;50.812;4.430;2022-12-24T15:47:23;53.30;;;8.33;;
24799;SDS011;12897;50.812;4.430;2022-12-24T15:49:52;48.87;;;8.13;;
24799;SDS011;12897;50.812;4.430;2022-12-24T15:52:20;58.85;;;8.83;;
24799;SDS011;12897;50.812;4.430;2022-12-24T15:54:49;53.08;;;9.53;;
24799;SDS011;12897;50.812;4.430;2022-12-24T15:57:31;50.92;;;9.00;;
24799;SDS011;12897;50.812;4.430;2022-12-24T16:00:00;48.15;;;8.48;;
24799;SDS011;12897;50.812;4.430;2022-12-24T16:02:31;54.85;;;8.63;;
24799;SDS011;12897;50.812;4.430;2022-12-24T16:10:43;52.37;;;8.63;;
24799;SDS011;12897;50.812;4.430;2022-12-24T16:15:52;57.48;;;8.85;;
24799;SDS011;12897;50.812;4.430;2022-12-24T16:18:26;53.65;;;8.28;;
24799;SDS011;12897;50.812;4.430;2022-12-24T16:20:58;39.23;;;8.05;;
24799;SDS011;12897;50.812;4.430;2022-12-24T16:23:35;51.02;;;8.38;;
24799;SDS011;12897;50.812;4.430;2022-12-24T16:26:00;43.55;;;8.85;;
24799;SDS011;12897;50.812;4.430;2022-12-24T16:28:27;44.25;;;7.70;;
24799;SDS011;12897;50.812;4.430;2022-12-24T16:30:55;56.40;;;8.48;;
24799;SDS011;12897;50.812;4.430;2022-12-24T16:33:23;53.35;;;8.80;;
24799;SDS011;12897;50.812;4.430;2022-12-24T16:35:51;43.55;;;10.05;;
24799;SDS011;12897;50.812;4.430;2022-12-24T16:38:20;54.58;;;9.60;;
24799;SDS011;12897;50.812;4.430;2022-12-24T16:40:47;53.33;;;9.57;;
24799;SDS011;12897;50.812;4.430;2022-12-24T16:43:15;59.50;;;9.53;;
24799;SDS011;12897;50.812;4.430;2022-12-24T16:46:06;63.23;;;10.13;;
24799;SDS011;12897;50.812;4.430;2022-12-24T16:48:32;52.98;;;10.95;;
24799;SDS011;12897;50.812;4.430;2022-12-24T16:51:02;56.37;;;10.60;;
24799;SDS011;12897;50.812;4.430;2022-12-24T16:53:31;54.60;;;10.25;;
24799;SDS011;12897;50.812;4.430;2022-12-24T16:55:59;45.23;;;10.50;;
24799;SDS011;12897;50.812;4.430;2022-12-24T16:58:30;52.30;;;10.60;;
24799;SDS011;12897;50.812;4.430;2022-12-24T17:00:57;50.67;;;10.18;;
24799;SDS011;12897;50.812;4.430;2022-12-24T17:03:26;57.27;;;11.18;;
24799;SDS011;12897;50.812;4.430;2022-12-24T17:05:55;49.55;;;11.03;;
24799;SDS011;12897;50.812;4.430;2022-12-24T17:08:23;53.87;;;11.75;;
24799;SDS011;12897;50.812;4.430;2022-12-24T17:10:51;55.92;;;10.98;;